Orange, New Hampshire
Current Conditions -  °F | °C
As of 10:53 AM on Friday 28 Nov 2014 (Local Time) from KLEB Reporting Station
Overcast Overcast  
Wind Chill: 20°   Ceiling: 2700
Heat Index: 29°   Visibility: 10mi
Dew Point: 20°   Wind: 9mph
Humidity: 69%   Direction: 330°NNW
Pressure: 30.06"   Gusts: NA
Location:  43.6625°N, 72.0033°W
Report Text: KLEB 281553Z 33008KT 10SM SCT019 BKN027 OVC038 M02/M07 A3006 RMK AO2 SLP189 T10171067
Loading
Personal Weather Stations






























Interactive Weather Map New forecast layout! Learn more

10-Day Weather Forecast

Advertisements
Track Severe Weather on mobile